sensor_id;sensor_type;location;lat;lon;timestamp;P1;durP1;ratioP1;P2;durP2;ratioP2
37431;SDS011;23292;51.300;6.252;2023-02-11T00:00:40;34.88;;;18.77;;
37431;SDS011;23292;51.300;6.252;2023-02-11T00:03:07;40.50;;;19.60;;
37431;SDS011;23292;51.300;6.252;2023-02-11T00:05:34;40.25;;;20.60;;
37431;SDS011;23292;51.300;6.252;2023-02-11T00:08:01;40.95;;;19.58;;
37431;SDS011;23292;51.300;6.252;2023-02-11T00:10:27;33.50;;;19.13;;
37431;SDS011;23292;51.300;6.252;2023-02-11T00:12:54;38.60;;;19.35;;
37431;SDS011;23292;51.300;6.252;2023-02-11T00:15:21;38.00;;;19.13;;
37431;SDS011;23292;51.300;6.252;2023-02-11T00:17:48;38.90;;;19.77;;
37431;SDS011;23292;51.300;6.252;2023-02-11T00:20:14;39.47;;;19.75;;
37431;SDS011;23292;51.300;6.252;2023-02-11T00:22:41;38.95;;;19.35;;
37431;SDS011;23292;51.300;6.252;2023-02-11T00:25:08;41.40;;;20.25;;
37431;SDS011;23292;51.300;6.252;2023-02-11T00:27:35;37.10;;;19.38;;
37431;SDS011;23292;51.300;6.252;2023-02-11T00:30:03;36.90;;;20.13;;
37431;SDS011;23292;51.300;6.252;2023-02-11T00:32:30;40.08;;;20.30;;
37431;SDS011;23292;51.300;6.252;2023-02-11T00:34:57;50.03;;;22.90;;
37431;SDS011;23292;51.300;6.252;2023-02-11T00:37:24;41.42;;;19.98;;
37431;SDS011;23292;51.300;6.252;2023-02-11T00:39:51;39.58;;;19.90;;
37431;SDS011;23292;51.300;6.252;2023-02-11T00:42:17;44.17;;;21.13;;
37431;SDS011;23292;51.300;6.252;2023-02-11T00:44:44;37.35;;;20.10;;
37431;SDS011;23292;51.300;6.252;2023-02-11T00:47:14;39.47;;;19.95;;
37431;SDS011;23292;51.300;6.252;2023-02-11T00:49:42;42.00;;;21.40;;
37431;SDS011;23292;51.300;6.252;2023-02-11T00:52:09;39.28;;;19.48;;
37431;SDS011;23292;51.300;6.252;2023-02-11T00:54:35;43.03;;;18.67;;
37431;SDS011;23292;51.300;6.252;2023-02-11T00:57:02;35.83;;;19.35;;
37431;SDS011;23292;51.300;6.252;2023-02-11T00:59:29;42.67;;;19.58;;
37431;SDS011;23292;51.300;6.252;2023-02-11T01:01:56;36.67;;;19.95;;
37431;SDS011;23292;51.300;6.252;2023-02-11T01:04:22;38.60;;;19.08;;
37431;SDS011;23292;51.300;6.252;2023-02-11T01:06:50;40.15;;;19.55;;
37431;SDS011;23292;51.300;6.252;2023-02-11T01:09:17;38.67;;;19.20;;
37431;SDS011;23292;51.300;6.252;2023-02-11T01:11:46;40.60;;;18.17;;
37431;SDS011;23292;51.300;6.252;2023-02-11T01:14:13;39.45;;;19.40;;
37431;SDS011;23292;51.300;6.252;2023-02-11T01:16:39;36.47;;;18.27;;
37431;SDS011;23292;51.300;6.252;2023-02-11T01:19:06;34.60;;;17.73;;
37431;SDS011;23292;51.300;6.252;2023-02-11T01:21:33;41.42;;;19.17;;
37431;SDS011;23292;51.300;6.252;2023-02-11T01:24:00;36.58;;;18.63;;
37431;SDS011;23292;51.300;6.252;2023-02-11T01:26:27;37.83;;;18.20;;
37431;SDS011;23292;51.300;6.252;2023-02-11T01:28:56;35.97;;;16.83;;
37431;SDS011;23292;51.300;6.252;2023-02-11T01:31:26;38.63;;;19.60;;
37431;SDS011;23292;51.300;6.252;2023-02-11T01:33:52;35.67;;;17.35;;
37431;SDS011;23292;51.300;6.252;2023-02-11T01:36:19;37.10;;;17.45;;
37431;SDS011;23292;51.300;6.252;2023-02-11T01:38:46;37.28;;;18.85;;
37431;SDS011;23292;51.300;6.252;2023-02-11T01:41:13;39.05;;;17.63;;
37431;SDS011;23292;51.300;6.252;2023-02-11T01:43:44;35.45;;;17.90;;
37431;SDS011;23292;51.300;6.252;2023-02-11T01:46:17;38.75;;;18.98;;
37431;SDS011;23292;51.300;6.252;2023-02-11T01:49:10;33.80;;;18.70;;
37431;SDS011;23292;51.300;6.252;2023-02-11T01:54:43;32.13;;;16.08;;
37431;SDS011;23292;51.300;6.252;2023-02-11T01:57:40;35.58;;;16.10;;
37431;SDS011;23292;51.300;6.252;2023-02-11T02:03:00;32.95;;;15.98;;
37431;SDS011;23292;51.300;6.252;2023-02-11T02:05:52;35.05;;;16.15;;
37431;SDS011;23292;51.300;6.252;2023-02-11T02:08:32;33.58;;;15.68;;
37431;SDS011;23292;51.300;6.252;2023-02-11T02:11:03;41.88;;;16.27;;
37431;SDS011;23292;51.300;6.252;2023-02-11T02:13:31;40.30;;;16.48;;
37431;SDS011;23292;51.300;6.252;2023-02-11T02:16:00;33.45;;;15.75;;
37431;SDS011;23292;51.300;6.252;2023-02-11T02:27:20;35.95;;;15.02;;
37431;SDS011;23292;51.300;6.252;2023-02-11T02:30:15;39.88;;;15.00;;
37431;SDS011;23292;51.300;6.252;2023-02-11T02:35:54;33.00;;;15.15;;
37431;SDS011;23292;51.300;6.252;2023-02-11T02:38:52;33.05;;;15.18;;
37431;SDS011;23292;51.300;6.252;2023-02-11T02:41:27;36.47;;;15.70;;
37431;SDS011;23292;51.300;6.252;2023-02-11T02:43:57;30.00;;;14.80;;
37431;SDS011;23292;51.300;6.252;2023-02-11T02:46:25;31.50;;;14.70;;
37431;SDS011;23292;51.300;6.252;2023-02-11T02:48:54;35.22;;;15.00;;
37431;SDS011;23292;51.300;6.252;2023-02-11T02:54:31;30.48;;;14.13;;
37431;SDS011;23292;51.300;6.252;2023-02-11T02:57:28;35.08;;;14.80;;
37431;SDS011;23292;51.300;6.252;2023-02-11T03:05:15;29.38;;;14.88;;
37431;SDS011;23292;51.300;6.252;2023-02-11T03:07:54;28.77;;;14.75;;
37431;SDS011;23292;51.300;6.252;2023-02-11T03:10:49;29.55;;;15.23;;
37431;SDS011;23292;51.300;6.252;2023-02-11T03:13:19;30.80;;;15.20;;
37431;SDS011;23292;51.300;6.252;2023-02-11T03:15:51;44.20;;;16.65;;
37431;SDS011;23292;51.300;6.252;2023-02-11T03:18:21;33.67;;;16.02;;
37431;SDS011;23292;51.300;6.252;2023-02-11T03:20:51;34.38;;;15.70;;
37431;SDS011;23292;51.300;6.252;2023-02-11T03:23:25;37.10;;;16.88;;
37431;SDS011;23292;51.300;6.252;2023-02-11T03:26:17;36.25;;;15.77;;
37431;SDS011;23292;51.300;6.252;2023-02-11T03:29:36;32.63;;;15.35;;
37431;SDS011;23292;51.300;6.252;2023-02-11T03:35:06;36.40;;;16.33;;
37431;SDS011;23292;51.300;6.252;2023-02-11T03:37:58;28.63;;;14.70;;
37431;SDS011;23292;51.300;6.252;2023-02-11T03:40:30;37.50;;;15.20;;
37431;SDS011;23292;51.300;6.252;2023-02-11T03:43:05;34.40;;;14.93;;
37431;SDS011;23292;51.300;6.252;2023-02-11T03:45:43;35.65;;;16.48;;
37431;SDS011;23292;51.300;6.252;2023-02-11T03:48:13;35.25;;;16.88;;
37431;SDS011;23292;51.300;6.252;2023-02-11T03:50:45;36.20;;;15.70;;
37431;SDS011;23292;51.300;6.252;2023-02-11T03:53:14;39.47;;;16.10;;
37431;SDS011;23292;51.300;6.252;2023-02-11T03:55:42;34.33;;;15.93;;
37431;SDS011;23292;51.300;6.252;2023-02-11T03:58:10;36.38;;;16.92;;
37431;SDS011;23292;51.300;6.252;2023-02-11T04:00:39;39.80;;;16.83;;
37431;SDS011;23292;51.300;6.252;2023-02-11T04:03:07;39.00;;;17.40;;
37431;SDS011;23292;51.300;6.252;2023-02-11T04:05:35;40.92;;;18.20;;
37431;SDS011;23292;51.300;6.252;2023-02-11T04:08:02;35.63;;;18.45;;
37431;SDS011;23292;51.300;6.252;2023-02-11T04:10:29;41.33;;;18.80;;
37431;SDS011;23292;51.300;6.252;2023-02-11T04:12:56;42.42;;;18.98;;
37431;SDS011;23292;51.300;6.252;2023-02-11T04:15:23;37.15;;;18.95;;
37431;SDS011;23292;51.300;6.252;2023-02-11T04:17:50;45.00;;;18.65;;
37431;SDS011;23292;51.300;6.252;2023-02-11T04:20:17;37.60;;;18.73;;
37431;SDS011;23292;51.300;6.252;2023-02-11T04:22:44;45.53;;;20.23;;
37431;SDS011;23292;51.300;6.252;2023-02-11T04:25:10;42.88;;;17.95;;
37431;SDS011;23292;51.300;6.252;2023-02-11T04:27:37;35.28;;;17.90;;
37431;SDS011;23292;51.300;6.252;2023-02-11T04:30:04;34.78;;;17.77;;
37431;SDS011;23292;51.300;6.252;2023-02-11T04:32:32;41.83;;;17.50;;
37431;SDS011;23292;51.300;6.252;2023-02-11T04:34:58;39.05;;;17.33;;
37431;SDS011;23292;51.300;6.252;2023-02-11T04:37:25;39.17;;;17.65;;
37431;SDS011;23292;51.300;6.252;2023-02-11T04:39:52;38.08;;;18.40;;
37431;SDS011;23292;51.300;6.252;2023-02-11T04:42:18;33.80;;;18.13;;
37431;SDS011;23292;51.300;6.252;2023-02-11T04:44:45;40.78;;;18.25;;
37431;SDS011;23292;51.300;6.252;2023-02-11T04:47:12;38.47;;;16.45;;
37431;SDS011;23292;51.300;6.252;2023-02-11T04:49:40;35.58;;;16.38;;
37431;SDS011;23292;51.300;6.252;2023-02-11T04:52:07;37.83;;;16.40;;
37431;SDS011;23292;51.300;6.252;2023-02-11T04:54:34;33.70;;;15.27;;
37431;SDS011;23292;51.300;6.252;2023-02-11T04:57:01;32.75;;;16.02;;
37431;SDS011;23292;51.300;6.252;2023-02-11T04:59:28;39.22;;;15.20;;
37431;SDS011;23292;51.300;6.252;2023-02-11T05:01:55;40.45;;;16.42;;
37431;SDS011;23292;51.300;6.252;2023-02-11T05:04:22;37.72;;;15.57;;
37431;SDS011;23292;51.300;6.252;2023-02-11T05:06:49;35.45;;;15.70;;
37431;SDS011;23292;51.300;6.252;2023-02-11T05:09:15;36.10;;;16.67;;
37431;SDS011;23292;51.300;6.252;2023-02-11T05:11:42;33.50;;;14.57;;
37431;SDS011;23292;51.300;6.252;2023-02-11T05:14:09;37.45;;;15.95;;
37431;SDS011;23292;51.300;6.252;2023-02-11T05:16:36;39.28;;;15.75;;
37431;SDS011;23292;51.300;6.252;2023-02-11T05:19:03;35.97;;;15.75;;
37431;SDS011;23292;51.300;6.252;2023-02-11T05:21:29;38.50;;;16.40;;
37431;SDS011;23292;51.300;6.252;2023-02-11T05:23:56;30.83;;;14.50;;
37431;SDS011;23292;51.300;6.252;2023-02-11T05:26:23;42.92;;;14.52;;
37431;SDS011;23292;51.300;6.252;2023-02-11T05:28:50;37.42;;;15.48;;
37431;SDS011;23292;51.300;6.252;2023-02-11T05:31:17;45.13;;;17.33;;
37431;SDS011;23292;51.300;6.252;2023-02-11T05:33:43;31.08;;;15.27;;
37431;SDS011;23292;51.300;6.252;2023-02-11T05:36:11;41.13;;;15.85;;
37431;SDS011;23292;51.300;6.252;2023-02-11T05:38:38;37.05;;;15.20;;
37431;SDS011;23292;51.300;6.252;2023-02-11T05:41:06;41.40;;;16.05;;
37431;SDS011;23292;51.300;6.252;2023-02-11T05:43:32;40.63;;;16.13;;
37431;SDS011;23292;51.300;6.252;2023-02-11T05:46:01;41.47;;;16.38;;
37431;SDS011;23292;51.300;6.252;2023-02-11T05:48:30;38.38;;;15.43;;
37431;SDS011;23292;51.300;6.252;2023-02-11T05:50:57;39.50;;;15.60;;
37431;SDS011;23292;51.300;6.252;2023-02-11T05:53:24;41.72;;;16.58;;
37431;SDS011;23292;51.300;6.252;2023-02-11T05:55:51;40.20;;;16.38;;
37431;SDS011;23292;51.300;6.252;2023-02-11T05:58:18;40.20;;;16.05;;
37431;SDS011;23292;51.300;6.252;2023-02-11T06:00:45;42.45;;;17.60;;
37431;SDS011;23292;51.300;6.252;2023-02-11T06:03:11;46.38;;;16.63;;
37431;SDS011;23292;51.300;6.252;2023-02-11T06:05:38;45.92;;;16.73;;
37431;SDS011;23292;51.300;6.252;2023-02-11T06:08:05;43.58;;;17.35;;
37431;SDS011;23292;51.300;6.252;2023-02-11T06:10:32;49.30;;;18.45;;
37431;SDS011;23292;51.300;6.252;2023-02-11T06:12:58;42.83;;;17.92;;
37431;SDS011;23292;51.300;6.252;2023-02-11T06:15:27;43.28;;;17.33;;
37431;SDS011;23292;51.300;6.252;2023-02-11T06:17:53;48.35;;;19.02;;
37431;SDS011;23292;51.300;6.252;2023-02-11T06:20:20;44.53;;;17.58;;
37431;SDS011;23292;51.300;6.252;2023-02-11T06:22:47;40.38;;;17.27;;
37431;SDS011;23292;51.300;6.252;2023-02-11T06:25:14;37.80;;;16.65;;
37431;SDS011;23292;51.300;6.252;2023-02-11T06:27:41;45.47;;;17.70;;
37431;SDS011;23292;51.300;6.252;2023-02-11T06:30:07;44.70;;;19.02;;
37431;SDS011;23292;51.300;6.252;2023-02-11T06:32:35;59.83;;;21.15;;
37431;SDS011;23292;51.300;6.252;2023-02-11T06:35:10;46.80;;;19.02;;
37431;SDS011;23292;51.300;6.252;2023-02-11T06:37:38;52.53;;;18.40;;
37431;SDS011;23292;51.300;6.252;2023-02-11T06:40:05;46.10;;;18.23;;
37431;SDS011;23292;51.300;6.252;2023-02-11T06:42:33;50.55;;;18.50;;
37431;SDS011;23292;51.300;6.252;2023-02-11T06:45:01;53.97;;;19.60;;
37431;SDS011;23292;51.300;6.252;2023-02-11T06:47:28;48.03;;;17.95;;
37431;SDS011;23292;51.300;6.252;2023-02-11T06:49:54;49.67;;;19.10;;
37431;SDS011;23292;51.300;6.252;2023-02-11T06:52:21;46.10;;;20.90;;
37431;SDS011;23292;51.300;6.252;2023-02-11T06:54:48;50.22;;;19.80;;
37431;SDS011;23292;51.300;6.252;2023-02-11T06:57:14;63.35;;;20.17;;
37431;SDS011;23292;51.300;6.252;2023-02-11T06:59:41;52.20;;;19.90;;
37431;SDS011;23292;51.300;6.252;2023-02-11T07:02:09;60.20;;;21.75;;
37431;SDS011;23292;51.300;6.252;2023-02-11T07:04:36;52.75;;;20.17;;
37431;SDS011;23292;51.300;6.252;2023-02-11T07:07:03;59.50;;;20.35;;
37431;SDS011;23292;51.300;6.252;2023-02-11T07:09:29;48.80;;;18.98;;
37431;SDS011;23292;51.300;6.252;2023-02-11T07:11:56;46.45;;;19.20;;
37431;SDS011;23292;51.300;6.252;2023-02-11T07:14:22;54.50;;;21.30;;
37431;SDS011;23292;51.300;6.252;2023-02-11T07:16:49;50.53;;;21.25;;
37431;SDS011;23292;51.300;6.252;2023-02-11T07:19:16;53.75;;;20.10;;
37431;SDS011;23292;51.300;6.252;2023-02-11T07:21:43;55.30;;;20.88;;
37431;SDS011;23292;51.300;6.252;2023-02-11T07:24:09;47.30;;;19.15;;
37431;SDS011;23292;51.300;6.252;2023-02-11T07:26:36;50.53;;;20.13;;
37431;SDS011;23292;51.300;6.252;2023-02-11T07:29:03;46.22;;;20.63;;
37431;SDS011;23292;51.300;6.252;2023-02-11T07:31:30;58.17;;;20.45;;
37431;SDS011;23292;51.300;6.252;2023-02-11T07:33:58;53.50;;;20.33;;
37431;SDS011;23292;51.300;6.252;2023-02-11T07:36:27;56.38;;;20.80;;
37431;SDS011;23292;51.300;6.252;2023-02-11T07:38:55;50.60;;;21.88;;
37431;SDS011;23292;51.300;6.252;2023-02-11T07:41:22;52.67;;;21.20;;
37431;SDS011;23292;51.300;6.252;2023-02-11T07:43:50;55.35;;;22.23;;
37431;SDS011;23292;51.300;6.252;2023-02-11T07:46:24;48.28;;;20.63;;
37431;SDS011;23292;51.300;6.252;2023-02-11T07:48:52;48.38;;;20.98;;
37431;SDS011;23292;51.300;6.252;2023-02-11T07:51:21;54.60;;;21.58;;
37431;SDS011;23292;51.300;6.252;2023-02-11T07:53:49;58.35;;;21.45;;
37431;SDS011;23292;51.300;6.252;2023-02-11T07:56:17;58.83;;;22.85;;
37431;SDS011;23292;51.300;6.252;2023-02-11T07:58:44;57.20;;;21.42;;
37431;SDS011;23292;51.300;6.252;2023-02-11T08:01:12;54.72;;;21.48;;
37431;SDS011;23292;51.300;6.252;2023-02-11T08:03:47;50.92;;;21.42;;
37431;SDS011;23292;51.300;6.252;2023-02-11T08:06:14;49.75;;;20.35;;
37431;SDS011;23292;51.300;6.252;2023-02-11T08:08:43;61.22;;;22.13;;
37431;SDS011;23292;51.300;6.252;2023-02-11T08:11:11;56.05;;;22.45;;
37431;SDS011;23292;51.300;6.252;2023-02-11T08:13:40;52.70;;;22.52;;
37431;SDS011;23292;51.300;6.252;2023-02-11T08:16:07;51.60;;;20.90;;
37431;SDS011;23292;51.300;6.252;2023-02-11T08:18:35;58.10;;;21.63;;
37431;SDS011;23292;51.300;6.252;2023-02-11T08:21:07;49.47;;;20.73;;
37431;SDS011;23292;51.300;6.252;2023-02-11T08:23:35;54.97;;;21.75;;
37431;SDS011;23292;51.300;6.252;2023-02-11T08:26:04;58.50;;;21.73;;
37431;SDS011;23292;51.300;6.252;2023-02-11T08:28:36;47.80;;;22.05;;
37431;SDS011;23292;51.300;6.252;2023-02-11T08:33:44;51.92;;;21.98;;
37431;SDS011;23292;51.300;6.252;2023-02-11T08:36:12;48.22;;;21.25;;
37431;SDS011;23292;51.300;6.252;2023-02-11T08:38:44;52.83;;;21.35;;
37431;SDS011;23292;51.300;6.252;2023-02-11T08:41:11;53.85;;;22.73;;
37431;SDS011;23292;51.300;6.252;2023-02-11T08:43:42;54.50;;;21.00;;
37431;SDS011;23292;51.300;6.252;2023-02-11T08:46:11;53.05;;;21.13;;
37431;SDS011;23292;51.300;6.252;2023-02-11T08:48:39;53.72;;;20.65;;
37431;SDS011;23292;51.300;6.252;2023-02-11T08:51:07;63.05;;;22.70;;
37431;SDS011;23292;51.300;6.252;2023-02-11T08:53:35;53.25;;;21.63;;
37431;SDS011;23292;51.300;6.252;2023-02-11T08:56:02;55.78;;;22.65;;
37431;SDS011;23292;51.300;6.252;2023-02-11T08:58:33;62.87;;;23.70;;
37431;SDS011;23292;51.300;6.252;2023-02-11T09:01:04;56.35;;;23.23;;
37431;SDS011;23292;51.300;6.252;2023-02-11T09:03:38;61.28;;;22.60;;
37431;SDS011;23292;51.300;6.252;2023-02-11T09:06:07;48.30;;;21.58;;
37431;SDS011;23292;51.300;6.252;2023-02-11T09:08:36;53.95;;;22.30;;
37431;SDS011;23292;51.300;6.252;2023-02-11T09:11:04;53.53;;;23.48;;
37431;SDS011;23292;51.300;6.252;2023-02-11T09:13:32;54.78;;;23.70;;
37431;SDS011;23292;51.300;6.252;2023-02-11T09:15:59;54.08;;;23.88;;
37431;SDS011;23292;51.300;6.252;2023-02-11T09:18:28;57.83;;;24.48;;
37431;SDS011;23292;51.300;6.252;2023-02-11T09:21:02;57.15;;;23.92;;
37431;SDS011;23292;51.300;6.252;2023-02-11T09:23:34;57.90;;;24.25;;
37431;SDS011;23292;51.300;6.252;2023-02-11T09:26:05;63.28;;;24.83;;
37431;SDS011;23292;51.300;6.252;2023-02-11T09:28:34;66.35;;;26.27;;
37431;SDS011;23292;51.300;6.252;2023-02-11T09:31:05;58.45;;;26.38;;
37431;SDS011;23292;51.300;6.252;2023-02-11T09:33:37;59.13;;;23.98;;
37431;SDS011;23292;51.300;6.252;2023-02-11T09:36:07;70.28;;;26.20;;
37431;SDS011;23292;51.300;6.252;2023-02-11T09:38:34;59.08;;;24.67;;
37431;SDS011;23292;51.300;6.252;2023-02-11T09:41:00;62.70;;;25.35;;
37431;SDS011;23292;51.300;6.252;2023-02-11T09:43:36;57.33;;;24.88;;
37431;SDS011;23292;51.300;6.252;2023-02-11T09:46:12;65.40;;;25.40;;
37431;SDS011;23292;51.300;6.252;2023-02-11T09:48:42;67.45;;;26.35;;
37431;SDS011;23292;51.300;6.252;2023-02-11T09:51:25;66.65;;;25.95;;
37431;SDS011;23292;51.300;6.252;2023-02-11T09:57:01;70.35;;;26.48;;
37431;SDS011;23292;51.300;6.252;2023-02-11T09:59:28;70.40;;;25.88;;
37431;SDS011;23292;51.300;6.252;2023-02-11T10:10:14;60.63;;;27.05;;
37431;SDS011;23292;51.300;6.252;2023-02-11T10:15:48;77.60;;;28.60;;
37431;SDS011;23292;51.300;6.252;2023-02-11T10:23:55;73.25;;;27.50;;
37431;SDS011;23292;51.300;6.252;2023-02-11T10:28:57;63.78;;;26.42;;
37431;SDS011;23292;51.300;6.252;2023-02-11T10:31:28;72.53;;;27.63;;
37431;SDS011;23292;51.300;6.252;2023-02-11T10:34:08;65.68;;;28.00;;
37431;SDS011;23292;51.300;6.252;2023-02-11T10:36:37;73.50;;;28.35;;
37431;SDS011;23292;51.300;6.252;2023-02-11T10:39:13;75.72;;;28.23;;
37431;SDS011;23292;51.300;6.252;2023-02-11T10:44:26;59.05;;;26.63;;
37431;SDS011;23292;51.300;6.252;2023-02-11T10:47:00;68.22;;;27.98;;
37431;SDS011;23292;51.300;6.252;2023-02-11T10:52:23;61.15;;;26.80;;
37431;SDS011;23292;51.300;6.252;2023-02-11T10:57:28;68.85;;;28.67;;
37431;SDS011;23292;51.300;6.252;2023-02-11T11:00:03;74.50;;;29.42;;
37431;SDS011;23292;51.300;6.252;2023-02-11T11:02:50;71.55;;;28.88;;
37431;SDS011;23292;51.300;6.252;2023-02-11T11:05:20;75.97;;;28.45;;
37431;SDS011;23292;51.300;6.252;2023-02-11T11:07:58;67.47;;;28.10;;
37431;SDS011;23292;51.300;6.252;2023-02-11T11:10:39;76.43;;;31.42;;
37431;SDS011;23292;51.300;6.252;2023-02-11T11:18:40;81.60;;;32.00;;
37431;SDS011;23292;51.300;6.252;2023-02-11T11:21:19;79.72;;;28.25;;
37431;SDS011;23292;51.300;6.252;2023-02-11T11:23:51;70.15;;;28.45;;
37431;SDS011;23292;51.300;6.252;2023-02-11T11:26:24;72.25;;;28.52;;
37431;SDS011;23292;51.300;6.252;2023-02-11T11:29:11;66.40;;;28.90;;
37431;SDS011;23292;51.300;6.252;2023-02-11T11:32:03;58.95;;;27.40;;
37431;SDS011;23292;51.300;6.252;2023-02-11T11:34:37;61.88;;;27.73;;
37431;SDS011;23292;51.300;6.252;2023-02-11T11:37:18;61.92;;;27.65;;
37431;SDS011;23292;51.300;6.252;2023-02-11T11:40:03;64.40;;;28.27;;
37431;SDS011;23292;51.300;6.252;2023-02-11T11:42:35;66.63;;;28.33;;
37431;SDS011;23292;51.300;6.252;2023-02-11T11:45:37;75.75;;;30.40;;
37431;SDS011;23292;51.300;6.252;2023-02-11T11:48:03;69.60;;;28.58;;
37431;SDS011;23292;51.300;6.252;2023-02-11T11:58:30;62.95;;;28.13;;
37431;SDS011;23292;51.300;6.252;2023-02-11T12:04:15;62.58;;;26.48;;
37431;SDS011;23292;51.300;6.252;2023-02-11T12:07:01;66.20;;;28.65;;
37431;SDS011;23292;51.300;6.252;2023-02-11T12:10:03;63.45;;;27.73;;
37431;SDS011;23292;51.300;6.252;2023-02-11T12:12:47;64.95;;;30.77;;
37431;SDS011;23292;51.300;6.252;2023-02-11T12:26:14;66.75;;;27.50;;
37431;SDS011;23292;51.300;6.252;2023-02-11T12:29:19;67.35;;;29.45;;
37431;SDS011;23292;51.300;6.252;2023-02-11T12:31:50;70.30;;;29.27;;
37431;SDS011;23292;51.300;6.252;2023-02-11T12:34:36;74.93;;;30.05;;
37431;SDS011;23292;51.300;6.252;2023-02-11T12:37:36;71.65;;;30.58;;
37431;SDS011;23292;51.300;6.252;2023-02-11T12:40:14;63.67;;;28.80;;
37431;SDS011;23292;51.300;6.252;2023-02-11T12:43:00;69.38;;;29.98;;
37431;SDS011;23292;51.300;6.252;2023-02-11T12:49:00;64.30;;;30.10;;
37431;SDS011;23292;51.300;6.252;2023-02-11T12:56:59;65.82;;;29.88;;
37431;SDS011;23292;51.300;6.252;2023-02-11T12:59:50;67.30;;;29.08;;
37431;SDS011;23292;51.300;6.252;2023-02-11T13:02:32;61.83;;;29.80;;
37431;SDS011;23292;51.300;6.252;2023-02-11T13:05:21;70.10;;;32.55;;
37431;SDS011;23292;51.300;6.252;2023-02-11T13:07:53;67.30;;;30.73;;
37431;SDS011;23292;51.300;6.252;2023-02-11T13:10:48;68.68;;;28.65;;
37431;SDS011;23292;51.300;6.252;2023-02-11T13:15:50;71.18;;;30.25;;
37431;SDS011;23292;51.300;6.252;2023-02-11T13:21:24;74.93;;;30.65;;
37431;SDS011;23292;51.300;6.252;2023-02-11T13:29:30;68.22;;;28.23;;
37431;SDS011;23292;51.300;6.252;2023-02-11T13:35:34;60.65;;;28.42;;
37431;SDS011;23292;51.300;6.252;2023-02-11T13:38:16;60.60;;;30.15;;
37431;SDS011;23292;51.300;6.252;2023-02-11T13:41:32;62.85;;;28.00;;
37431;SDS011;23292;51.300;6.252;2023-02-11T13:43:58;59.63;;;28.48;;
37431;SDS011;23292;51.300;6.252;2023-02-11T13:52:17;65.07;;;28.88;;
37431;SDS011;23292;51.300;6.252;2023-02-11T13:54:50;59.15;;;28.83;;
37431;SDS011;23292;51.300;6.252;2023-02-11T13:59:57;58.95;;;28.48;;
37431;SDS011;23292;51.300;6.252;2023-02-11T14:02:27;66.03;;;29.13;;
37431;SDS011;23292;51.300;6.252;2023-02-11T14:05:24;61.93;;;27.37;;
37431;SDS011;23292;51.300;6.252;2023-02-11T14:08:16;60.65;;;28.40;;
37431;SDS011;23292;51.300;6.252;2023-02-11T14:19:44;58.97;;;27.25;;
37431;SDS011;23292;51.300;6.252;2023-02-11T14:22:21;69.38;;;29.98;;
37431;SDS011;23292;51.300;6.252;2023-02-11T14:25:00;58.70;;;28.25;;
37431;SDS011;23292;51.300;6.252;2023-02-11T14:27:41;69.97;;;30.13;;
37431;SDS011;23292;51.300;6.252;2023-02-11T14:38:25;62.63;;;29.83;;
37431;SDS011;23292;51.300;6.252;2023-02-11T14:41:04;72.18;;;30.35;;
37431;SDS011;23292;51.300;6.252;2023-02-11T14:43:45;70.82;;;29.88;;
37431;SDS011;23292;51.300;6.252;2023-02-11T14:46:16;66.30;;;31.15;;
37431;SDS011;23292;51.300;6.252;2023-02-11T14:48:48;60.08;;;28.75;;
37431;SDS011;23292;51.300;6.252;2023-02-11T14:51:19;66.28;;;29.90;;
37431;SDS011;23292;51.300;6.252;2023-02-11T14:53:52;58.58;;;30.15;;
37431;SDS011;23292;51.300;6.252;2023-02-11T14:56:23;64.50;;;31.50;;
37431;SDS011;23292;51.300;6.252;2023-02-11T14:58:52;65.75;;;30.23;;
37431;SDS011;23292;51.300;6.252;2023-02-11T15:01:30;65.85;;;32.03;;
37431;SDS011;23292;51.300;6.252;2023-02-11T15:04:03;67.72;;;30.60;;
37431;SDS011;23292;51.300;6.252;2023-02-11T15:09:03;64.90;;;29.88;;
37431;SDS011;23292;51.300;6.252;2023-02-11T15:11:33;68.80;;;30.87;;
37431;SDS011;23292;51.300;6.252;2023-02-11T15:14:06;64.07;;;30.58;;
37431;SDS011;23292;51.300;6.252;2023-02-11T15:16:41;64.28;;;31.58;;
37431;SDS011;23292;51.300;6.252;2023-02-11T15:19:16;61.42;;;32.55;;
37431;SDS011;23292;51.300;6.252;2023-02-11T15:21:47;66.43;;;32.70;;
37431;SDS011;23292;51.300;6.252;2023-02-11T15:26:57;66.13;;;31.50;;
37431;SDS011;23292;51.300;6.252;2023-02-11T15:29:39;66.25;;;32.67;;
37431;SDS011;23292;51.300;6.252;2023-02-11T15:34:48;69.30;;;32.75;;
37431;SDS011;23292;51.300;6.252;2023-02-11T15:37:24;65.18;;;30.42;;
37431;SDS011;23292;51.300;6.252;2023-02-11T15:39:52;63.60;;;31.20;;
37431;SDS011;23292;51.300;6.252;2023-02-11T15:42:24;65.20;;;33.33;;
37431;SDS011;23292;51.300;6.252;2023-02-11T15:47:46;65.95;;;33.63;;
37431;SDS011;23292;51.300;6.252;2023-02-11T15:50:25;67.85;;;33.55;;
37431;SDS011;23292;51.300;6.252;2023-02-11T15:52:56;71.43;;;32.78;;
37431;SDS011;23292;51.300;6.252;2023-02-11T15:55:25;67.68;;;33.05;;
37431;SDS011;23292;51.300;6.252;2023-02-11T15:57:54;68.05;;;32.92;;
37431;SDS011;23292;51.300;6.252;2023-02-11T16:00:24;70.03;;;33.00;;
37431;SDS011;23292;51.300;6.252;2023-02-11T16:02:59;68.57;;;34.33;;
37431;SDS011;23292;51.300;6.252;2023-02-11T16:05:29;76.68;;;34.80;;
37431;SDS011;23292;51.300;6.252;2023-02-11T16:07:59;66.97;;;32.60;;
37431;SDS011;23292;51.300;6.252;2023-02-11T16:10:38;71.28;;;32.38;;
37431;SDS011;23292;51.300;6.252;2023-02-11T16:13:18;75.80;;;33.65;;
37431;SDS011;23292;51.300;6.252;2023-02-11T16:15:47;68.80;;;33.42;;
37431;SDS011;23292;51.300;6.252;2023-02-11T16:18:31;69.70;;;34.03;;
37431;SDS011;23292;51.300;6.252;2023-02-11T16:21:05;73.10;;;34.58;;
37431;SDS011;23292;51.300;6.252;2023-02-11T16:23:39;67.47;;;33.95;;
37431;SDS011;23292;51.300;6.252;2023-02-11T16:26:29;68.50;;;34.58;;
37431;SDS011;23292;51.300;6.252;2023-02-11T16:29:05;71.82;;;33.40;;
37431;SDS011;23292;51.300;6.252;2023-02-11T16:31:37;73.30;;;34.17;;
37431;SDS011;23292;51.300;6.252;2023-02-11T16:34:10;77.78;;;35.05;;
37431;SDS011;23292;51.300;6.252;2023-02-11T16:36:38;71.90;;;35.42;;
37431;SDS011;23292;51.300;6.252;2023-02-11T16:39:05;73.57;;;32.60;;
37431;SDS011;23292;51.300;6.252;2023-02-11T16:41:32;71.20;;;35.47;;
37431;SDS011;23292;51.300;6.252;2023-02-11T16:43:59;73.07;;;35.35;;
37431;SDS011;23292;51.300;6.252;2023-02-11T16:46:25;70.15;;;34.85;;
37431;SDS011;23292;51.300;6.252;2023-02-11T16:48:55;72.45;;;34.88;;
37431;SDS011;23292;51.300;6.252;2023-02-11T16:51:24;77.55;;;34.08;;
37431;SDS011;23292;51.300;6.252;2023-02-11T16:53:50;81.75;;;36.38;;
37431;SDS011;23292;51.300;6.252;2023-02-11T16:56:17;78.32;;;37.05;;
37431;SDS011;23292;51.300;6.252;2023-02-11T16:58:44;75.28;;;34.53;;
37431;SDS011;23292;51.300;6.252;2023-02-11T17:01:11;74.13;;;36.47;;
37431;SDS011;23292;51.300;6.252;2023-02-11T17:03:39;76.28;;;34.70;;
37431;SDS011;23292;51.300;6.252;2023-02-11T17:06:09;74.53;;;34.42;;
37431;SDS011;23292;51.300;6.252;2023-02-11T17:08:38;82.43;;;38.15;;
37431;SDS011;23292;51.300;6.252;2023-02-11T17:11:06;72.72;;;36.50;;
37431;SDS011;23292;51.300;6.252;2023-02-11T17:13:33;75.20;;;37.17;;
37431;SDS011;23292;51.300;6.252;2023-02-11T17:16:01;72.45;;;35.95;;